sensor_id;sensor_type;location;lat;lon;timestamp;P1;durP1;ratioP1;P2;durP2;ratioP2
7076;SDS011;3579;48.956;9.154;2023-09-08T00:02:05;2.93;;;2.67;;
7076;SDS011;3579;48.956;9.154;2023-09-08T00:04:31;3.17;;;2.80;;
7076;SDS011;3579;48.956;9.154;2023-09-08T00:06:58;3.20;;;2.90;;
7076;SDS011;3579;48.956;9.154;2023-09-08T00:09:24;2.97;;;2.67;;
7076;SDS011;3579;48.956;9.154;2023-09-08T00:11:50;3.00;;;2.80;;
7076;SDS011;3579;48.956;9.154;2023-09-08T00:14:17;2.90;;;2.60;;
7076;SDS011;3579;48.956;9.154;2023-09-08T00:16:44;3.23;;;2.80;;
7076;SDS011;3579;48.956;9.154;2023-09-08T00:19:10;2.80;;;2.50;;
7076;SDS011;3579;48.956;9.154;2023-09-08T00:21:36;2.90;;;2.60;;
7076;SDS011;3579;48.956;9.154;2023-09-08T00:24:03;3.50;;;3.00;;
7076;SDS011;3579;48.956;9.154;2023-09-08T00:26:30;3.80;;;2.97;;
7076;SDS011;3579;48.956;9.154;2023-09-08T00:28:56;3.00;;;2.70;;
7076;SDS011;3579;48.956;9.154;2023-09-08T00:31:22;3.17;;;2.87;;
7076;SDS011;3579;48.956;9.154;2023-09-08T00:33:48;3.20;;;2.90;;
7076;SDS011;3579;48.956;9.154;2023-09-08T00:36:14;2.57;;;2.30;;
7076;SDS011;3579;48.956;9.154;2023-09-08T00:38:40;2.63;;;2.43;;
7076;SDS011;3579;48.956;9.154;2023-09-08T00:41:07;3.03;;;2.73;;
7076;SDS011;3579;48.956;9.154;2023-09-08T00:43:33;2.97;;;2.77;;
7076;SDS011;3579;48.956;9.154;2023-09-08T00:45:59;3.00;;;2.70;;
7076;SDS011;3579;48.956;9.154;2023-09-08T00:48:28;3.57;;;2.80;;
7076;SDS011;3579;48.956;9.154;2023-09-08T00:50:55;3.10;;;2.80;;
7076;SDS011;3579;48.956;9.154;2023-09-08T00:53:22;3.20;;;2.90;;
7076;SDS011;3579;48.956;9.154;2023-09-08T00:55:48;3.10;;;2.80;;
7076;SDS011;3579;48.956;9.154;2023-09-08T00:58:15;3.37;;;2.70;;
7076;SDS011;3579;48.956;9.154;2023-09-08T01:00:42;3.10;;;2.80;;
7076;SDS011;3579;48.956;9.154;2023-09-08T01:03:11;3.43;;;2.60;;
7076;SDS011;3579;48.956;9.154;2023-09-08T01:05:37;3.10;;;2.80;;
7076;SDS011;3579;48.956;9.154;2023-09-08T01:08:03;2.73;;;2.53;;
7076;SDS011;3579;48.956;9.154;2023-09-08T01:10:30;2.77;;;2.53;;
7076;SDS011;3579;48.956;9.154;2023-09-08T01:12:57;2.80;;;2.60;;
7076;SDS011;3579;48.956;9.154;2023-09-08T01:15:23;3.37;;;3.03;;
7076;SDS011;3579;48.956;9.154;2023-09-08T01:17:49;2.70;;;2.50;;
7076;SDS011;3579;48.956;9.154;2023-09-08T01:20:20;2.80;;;2.60;;
7076;SDS011;3579;48.956;9.154;2023-09-08T01:25:55;2.83;;;2.63;;
7076;SDS011;3579;48.956;9.154;2023-09-08T01:28:34;2.60;;;2.40;;
7076;SDS011;3579;48.956;9.154;2023-09-08T01:31:01;2.97;;;2.67;;
7076;SDS011;3579;48.956;9.154;2023-09-08T01:33:27;3.10;;;2.80;;
7076;SDS011;3579;48.956;9.154;2023-09-08T01:35:53;3.13;;;2.83;;
7076;SDS011;3579;48.956;9.154;2023-09-08T01:38:21;3.77;;;2.50;;
7076;SDS011;3579;48.956;9.154;2023-09-08T01:40:49;3.10;;;2.80;;
7076;SDS011;3579;48.956;9.154;2023-09-08T01:43:15;2.83;;;2.63;;
7076;SDS011;3579;48.956;9.154;2023-09-08T01:45:41;3.20;;;2.87;;
7076;SDS011;3579;48.956;9.154;2023-09-08T01:48:07;3.07;;;2.77;;
7076;SDS011;3579;48.956;9.154;2023-09-08T01:50:33;2.80;;;2.60;;
7076;SDS011;3579;48.956;9.154;2023-09-08T01:52:59;2.90;;;2.50;;
7076;SDS011;3579;48.956;9.154;2023-09-08T01:55:25;2.73;;;2.50;;
7076;SDS011;3579;48.956;9.154;2023-09-08T01:57:51;2.77;;;2.50;;
7076;SDS011;3579;48.956;9.154;2023-09-08T02:00:17;2.77;;;2.47;;
7076;SDS011;3579;48.956;9.154;2023-09-08T02:02:43;3.00;;;2.70;;
7076;SDS011;3579;48.956;9.154;2023-09-08T02:05:09;2.73;;;2.50;;
7076;SDS011;3579;48.956;9.154;2023-09-08T02:07:35;3.00;;;2.73;;
7076;SDS011;3579;48.956;9.154;2023-09-08T02:10:01;2.63;;;2.43;;
7076;SDS011;3579;48.956;9.154;2023-09-08T02:12:27;3.10;;;2.80;;
7076;SDS011;3579;48.956;9.154;2023-09-08T02:14:53;2.90;;;2.60;;
7076;SDS011;3579;48.956;9.154;2023-09-08T02:17:19;2.57;;;2.37;;
7076;SDS011;3579;48.956;9.154;2023-09-08T02:19:45;3.03;;;2.53;;
7076;SDS011;3579;48.956;9.154;2023-09-08T02:22:11;2.93;;;2.67;;
7076;SDS011;3579;48.956;9.154;2023-09-08T02:24:37;2.77;;;2.57;;
7076;SDS011;3579;48.956;9.154;2023-09-08T02:27:03;2.90;;;2.60;;
7076;SDS011;3579;48.956;9.154;2023-09-08T02:29:30;3.20;;;2.90;;
7076;SDS011;3579;48.956;9.154;2023-09-08T02:31:57;2.93;;;2.73;;
7076;SDS011;3579;48.956;9.154;2023-09-08T02:34:23;2.70;;;2.50;;
7076;SDS011;3579;48.956;9.154;2023-09-08T02:36:49;2.83;;;2.50;;
7076;SDS011;3579;48.956;9.154;2023-09-08T02:39:16;2.73;;;2.53;;
7076;SDS011;3579;48.956;9.154;2023-09-08T02:41:42;2.80;;;2.60;;
7076;SDS011;3579;48.956;9.154;2023-09-08T02:44:08;2.90;;;2.60;;
7076;SDS011;3579;48.956;9.154;2023-09-08T02:46:34;2.60;;;2.40;;
7076;SDS011;3579;48.956;9.154;2023-09-08T02:49:00;3.17;;;2.87;;
7076;SDS011;3579;48.956;9.154;2023-09-08T02:51:26;3.00;;;2.77;;
7076;SDS011;3579;48.956;9.154;2023-09-08T02:53:52;2.70;;;2.43;;
7076;SDS011;3579;48.956;9.154;2023-09-08T02:56:18;2.80;;;2.60;;
7076;SDS011;3579;48.956;9.154;2023-09-08T02:58:44;3.00;;;2.70;;
7076;SDS011;3579;48.956;9.154;2023-09-08T03:01:14;2.90;;;2.60;;
7076;SDS011;3579;48.956;9.154;2023-09-08T03:03:41;3.13;;;2.70;;
7076;SDS011;3579;48.956;9.154;2023-09-08T03:06:08;2.70;;;2.50;;
7076;SDS011;3579;48.956;9.154;2023-09-08T03:08:35;2.70;;;2.50;;
7076;SDS011;3579;48.956;9.154;2023-09-08T03:11:02;2.77;;;2.57;;
7076;SDS011;3579;48.956;9.154;2023-09-08T03:13:28;2.60;;;2.40;;
7076;SDS011;3579;48.956;9.154;2023-09-08T03:15:55;3.20;;;2.90;;
7076;SDS011;3579;48.956;9.154;2023-09-08T03:18:22;3.30;;;3.00;;
7076;SDS011;3579;48.956;9.154;2023-09-08T03:20:49;2.93;;;2.40;;
7076;SDS011;3579;48.956;9.154;2023-09-08T03:23:15;2.80;;;2.60;;
7076;SDS011;3579;48.956;9.154;2023-09-08T03:25:42;2.90;;;2.60;;
7076;SDS011;3579;48.956;9.154;2023-09-08T03:28:08;3.20;;;2.50;;
7076;SDS011;3579;48.956;9.154;2023-09-08T03:30:35;2.90;;;2.60;;
7076;SDS011;3579;48.956;9.154;2023-09-08T03:33:01;3.10;;;2.80;;
7076;SDS011;3579;48.956;9.154;2023-09-08T03:35:27;2.50;;;2.30;;
7076;SDS011;3579;48.956;9.154;2023-09-08T03:37:53;3.03;;;2.43;;
7076;SDS011;3579;48.956;9.154;2023-09-08T03:40:19;2.77;;;2.53;;
7076;SDS011;3579;48.956;9.154;2023-09-08T03:42:45;2.97;;;2.77;;
7076;SDS011;3579;48.956;9.154;2023-09-08T03:45:11;2.83;;;2.60;;
7076;SDS011;3579;48.956;9.154;2023-09-08T03:47:37;2.63;;;2.40;;
7076;SDS011;3579;48.956;9.154;2023-09-08T03:50:03;3.00;;;2.70;;
7076;SDS011;3579;48.956;9.154;2023-09-08T03:52:29;3.00;;;2.70;;
7076;SDS011;3579;48.956;9.154;2023-09-08T03:54:55;2.50;;;2.30;;
7076;SDS011;3579;48.956;9.154;2023-09-08T03:57:21;2.60;;;2.40;;
7076;SDS011;3579;48.956;9.154;2023-09-08T03:59:47;3.00;;;2.70;;
7076;SDS011;3579;48.956;9.154;2023-09-08T04:02:13;2.70;;;2.50;;
7076;SDS011;3579;48.956;9.154;2023-09-08T04:04:39;2.80;;;2.60;;
7076;SDS011;3579;48.956;9.154;2023-09-08T04:07:05;2.93;;;2.50;;
7076;SDS011;3579;48.956;9.154;2023-09-08T04:09:31;2.50;;;2.30;;
7076;SDS011;3579;48.956;9.154;2023-09-08T04:11:57;2.93;;;2.70;;
7076;SDS011;3579;48.956;9.154;2023-09-08T04:14:23;2.70;;;2.50;;
7076;SDS011;3579;48.956;9.154;2023-09-08T04:16:52;2.70;;;2.50;;
7076;SDS011;3579;48.956;9.154;2023-09-08T04:19:18;2.90;;;2.70;;
7076;SDS011;3579;48.956;9.154;2023-09-08T04:21:44;2.70;;;2.50;;
7076;SDS011;3579;48.956;9.154;2023-09-08T04:24:10;2.70;;;2.50;;
7076;SDS011;3579;48.956;9.154;2023-09-08T04:26:37;2.87;;;2.67;;
7076;SDS011;3579;48.956;9.154;2023-09-08T04:29:03;2.60;;;2.40;;
7076;SDS011;3579;48.956;9.154;2023-09-08T04:31:29;3.07;;;2.70;;
7076;SDS011;3579;48.956;9.154;2023-09-08T04:33:55;2.77;;;2.53;;
7076;SDS011;3579;48.956;9.154;2023-09-08T04:36:21;2.73;;;2.53;;
7076;SDS011;3579;48.956;9.154;2023-09-08T04:38:47;2.80;;;2.57;;
7076;SDS011;3579;48.956;9.154;2023-09-08T04:41:13;2.50;;;2.30;;
7076;SDS011;3579;48.956;9.154;2023-09-08T04:43:39;2.90;;;2.60;;
7076;SDS011;3579;48.956;9.154;2023-09-08T04:46:05;2.73;;;2.40;;
7076;SDS011;3579;48.956;9.154;2023-09-08T04:48:31;3.10;;;2.87;;
7076;SDS011;3579;48.956;9.154;2023-09-08T04:50:57;4.70;;;3.57;;
7076;SDS011;3579;48.956;9.154;2023-09-08T04:53:23;4.07;;;3.67;;
7076;SDS011;3579;48.956;9.154;2023-09-08T04:55:49;5.67;;;3.60;;
7076;SDS011;3579;48.956;9.154;2023-09-08T04:58:15;5.57;;;4.40;;
7076;SDS011;3579;48.956;9.154;2023-09-08T05:00:41;9.23;;;4.57;;
7076;SDS011;3579;48.956;9.154;2023-09-08T05:03:07;6.57;;;4.97;;
7076;SDS011;3579;48.956;9.154;2023-09-08T05:05:33;8.00;;;5.13;;
7076;SDS011;3579;48.956;9.154;2023-09-08T05:08:00;7.53;;;5.17;;
7076;SDS011;3579;48.956;9.154;2023-09-08T05:10:26;7.77;;;5.20;;
7076;SDS011;3579;48.956;9.154;2023-09-08T05:12:52;9.60;;;5.60;;
7076;SDS011;3579;48.956;9.154;2023-09-08T05:15:18;6.03;;;5.03;;
7076;SDS011;3579;48.956;9.154;2023-09-08T05:17:46;7.20;;;4.90;;
7076;SDS011;3579;48.956;9.154;2023-09-08T05:20:12;7.17;;;4.90;;
7076;SDS011;3579;48.956;9.154;2023-09-08T05:22:38;7.60;;;4.80;;
7076;SDS011;3579;48.956;9.154;2023-09-08T05:25:04;6.53;;;5.47;;
7076;SDS011;3579;48.956;9.154;2023-09-08T05:27:31;13.83;;;5.33;;
7076;SDS011;3579;48.956;9.154;2023-09-08T05:29:57;7.83;;;5.33;;
7076;SDS011;3579;48.956;9.154;2023-09-08T05:32:24;7.07;;;4.93;;
7076;SDS011;3579;48.956;9.154;2023-09-08T05:34:50;8.47;;;5.20;;
7076;SDS011;3579;48.956;9.154;2023-09-08T05:37:16;6.90;;;5.10;;
7076;SDS011;3579;48.956;9.154;2023-09-08T05:39:42;7.40;;;5.20;;
7076;SDS011;3579;48.956;9.154;2023-09-08T05:42:08;8.67;;;4.90;;
7076;SDS011;3579;48.956;9.154;2023-09-08T05:44:34;5.87;;;4.97;;
7076;SDS011;3579;48.956;9.154;2023-09-08T05:47:00;12.87;;;5.60;;
7076;SDS011;3579;48.956;9.154;2023-09-08T05:49:26;10.73;;;5.37;;
7076;SDS011;3579;48.956;9.154;2023-09-08T05:51:52;8.10;;;5.53;;
7076;SDS011;3579;48.956;9.154;2023-09-08T05:54:18;9.57;;;5.53;;
7076;SDS011;3579;48.956;9.154;2023-09-08T05:56:44;8.67;;;4.83;;
7076;SDS011;3579;48.956;9.154;2023-09-08T05:59:10;7.97;;;5.77;;
7076;SDS011;3579;48.956;9.154;2023-09-08T06:01:36;9.10;;;5.40;;
7076;SDS011;3579;48.956;9.154;2023-09-08T06:04:03;7.67;;;5.27;;
7076;SDS011;3579;48.956;9.154;2023-09-08T06:06:29;9.63;;;5.50;;
7076;SDS011;3579;48.956;9.154;2023-09-08T06:08:55;9.03;;;5.70;;
7076;SDS011;3579;48.956;9.154;2023-09-08T06:11:21;11.90;;;6.00;;
7076;SDS011;3579;48.956;9.154;2023-09-08T06:13:47;8.87;;;5.40;;
7076;SDS011;3579;48.956;9.154;2023-09-08T06:16:13;11.37;;;5.70;;
7076;SDS011;3579;48.956;9.154;2023-09-08T06:18:48;8.63;;;6.10;;
7076;SDS011;3579;48.956;9.154;2023-09-08T06:21:14;11.67;;;5.97;;
7076;SDS011;3579;48.956;9.154;2023-09-08T06:23:45;13.60;;;6.70;;
7076;SDS011;3579;48.956;9.154;2023-09-08T06:26:11;11.20;;;7.03;;
7076;SDS011;3579;48.956;9.154;2023-09-08T06:28:38;8.47;;;6.57;;
7076;SDS011;3579;48.956;9.154;2023-09-08T06:31:05;9.73;;;6.53;;
7076;SDS011;3579;48.956;9.154;2023-09-08T06:33:31;7.37;;;5.70;;
7076;SDS011;3579;48.956;9.154;2023-09-08T06:35:57;11.07;;;6.97;;
7076;SDS011;3579;48.956;9.154;2023-09-08T06:38:24;11.80;;;6.70;;
7076;SDS011;3579;48.956;9.154;2023-09-08T06:40:50;12.20;;;6.73;;
7076;SDS011;3579;48.956;9.154;2023-09-08T06:43:18;14.70;;;6.83;;
7076;SDS011;3579;48.956;9.154;2023-09-08T06:45:48;11.73;;;6.40;;
7076;SDS011;3579;48.956;9.154;2023-09-08T06:48:14;8.33;;;6.50;;
7076;SDS011;3579;48.956;9.154;2023-09-08T06:50:41;13.20;;;6.70;;
7076;SDS011;3579;48.956;9.154;2023-09-08T06:53:07;12.60;;;6.67;;
7076;SDS011;3579;48.956;9.154;2023-09-08T06:55:33;12.10;;;6.23;;
7076;SDS011;3579;48.956;9.154;2023-09-08T06:57:59;9.90;;;6.20;;
7076;SDS011;3579;48.956;9.154;2023-09-08T07:00:26;11.60;;;6.40;;
7076;SDS011;3579;48.956;9.154;2023-09-08T07:02:52;14.23;;;6.43;;
7076;SDS011;3579;48.956;9.154;2023-09-08T07:05:18;9.53;;;6.50;;
7076;SDS011;3579;48.956;9.154;2023-09-08T07:07:44;13.73;;;6.93;;
7076;SDS011;3579;48.956;9.154;2023-09-08T07:10:10;8.97;;;6.37;;
7076;SDS011;3579;48.956;9.154;2023-09-08T07:12:36;8.80;;;6.63;;
7076;SDS011;3579;48.956;9.154;2023-09-08T07:15:03;8.70;;;6.70;;
7076;SDS011;3579;48.956;9.154;2023-09-08T07:17:29;9.27;;;6.47;;
7076;SDS011;3579;48.956;9.154;2023-09-08T07:19:55;11.53;;;6.60;;
7076;SDS011;3579;48.956;9.154;2023-09-08T07:22:21;10.90;;;6.47;;
7076;SDS011;3579;48.956;9.154;2023-09-08T07:24:48;12.73;;;6.60;;
7076;SDS011;3579;48.956;9.154;2023-09-08T07:27:14;11.23;;;6.50;;
7076;SDS011;3579;48.956;9.154;2023-09-08T07:29:40;10.33;;;6.43;;
7076;SDS011;3579;48.956;9.154;2023-09-08T07:32:07;10.63;;;6.20;;
7076;SDS011;3579;48.956;9.154;2023-09-08T07:34:33;11.90;;;6.03;;
7076;SDS011;3579;48.956;9.154;2023-09-08T07:37:00;7.27;;;5.77;;
7076;SDS011;3579;48.956;9.154;2023-09-08T07:39:27;11.33;;;6.03;;
7076;SDS011;3579;48.956;9.154;2023-09-08T07:41:58;9.87;;;5.80;;
7076;SDS011;3579;48.956;9.154;2023-09-08T07:44:24;12.17;;;6.10;;
7076;SDS011;3579;48.956;9.154;2023-09-08T07:46:50;8.47;;;5.47;;
7076;SDS011;3579;48.956;9.154;2023-09-08T07:49:17;7.13;;;5.43;;
7076;SDS011;3579;48.956;9.154;2023-09-08T07:51:45;9.97;;;5.20;;
7076;SDS011;3579;48.956;9.154;2023-09-08T07:54:11;8.60;;;5.90;;
7076;SDS011;3579;48.956;9.154;2023-09-08T07:56:38;10.10;;;5.60;;
7076;SDS011;3579;48.956;9.154;2023-09-08T07:59:06;11.37;;;5.90;;
7076;SDS011;3579;48.956;9.154;2023-09-08T08:01:32;10.40;;;6.00;;
7076;SDS011;3579;48.956;9.154;2023-09-08T08:04:00;8.97;;;5.60;;
7076;SDS011;3579;48.956;9.154;2023-09-08T08:06:29;5.20;;;4.70;;
7076;SDS011;3579;48.956;9.154;2023-09-08T08:08:55;9.00;;;4.73;;
7076;SDS011;3579;48.956;9.154;2023-09-08T08:11:21;6.60;;;4.77;;
7076;SDS011;3579;48.956;9.154;2023-09-08T08:13:48;5.20;;;4.70;;
7076;SDS011;3579;48.956;9.154;2023-09-08T08:16:14;9.60;;;5.33;;
7076;SDS011;3579;48.956;9.154;2023-09-08T08:18:40;7.53;;;4.53;;
7076;SDS011;3579;48.956;9.154;2023-09-08T08:21:06;6.90;;;4.47;;
7076;SDS011;3579;48.956;9.154;2023-09-08T08:23:33;6.33;;;4.63;;
7076;SDS011;3579;48.956;9.154;2023-09-08T08:25:59;5.87;;;4.30;;
7076;SDS011;3579;48.956;9.154;2023-09-08T08:28:26;5.50;;;4.63;;
7076;SDS011;3579;48.956;9.154;2023-09-08T08:30:52;6.00;;;4.33;;
7076;SDS011;3579;48.956;9.154;2023-09-08T08:33:18;6.90;;;4.50;;
7076;SDS011;3579;48.956;9.154;2023-09-08T08:35:49;6.53;;;4.20;;
7076;SDS011;3579;48.956;9.154;2023-09-08T08:38:16;5.23;;;4.57;;
7076;SDS011;3579;48.956;9.154;2023-09-08T08:40:42;6.37;;;4.70;;
7076;SDS011;3579;48.956;9.154;2023-09-08T08:43:09;4.73;;;4.27;;
7076;SDS011;3579;48.956;9.154;2023-09-08T08:45:36;5.90;;;4.27;;
7076;SDS011;3579;48.956;9.154;2023-09-08T08:48:05;6.03;;;4.40;;
7076;SDS011;3579;48.956;9.154;2023-09-08T08:50:33;8.27;;;3.97;;
7076;SDS011;3579;48.956;9.154;2023-09-08T08:53:00;5.20;;;4.57;;
7076;SDS011;3579;48.956;9.154;2023-09-08T08:55:29;5.70;;;3.90;;
7076;SDS011;3579;48.956;9.154;2023-09-08T08:58:00;4.83;;;4.10;;
7076;SDS011;3579;48.956;9.154;2023-09-08T09:00:30;6.17;;;4.10;;
7076;SDS011;3579;48.956;9.154;2023-09-08T09:02:59;4.97;;;3.83;;
7076;SDS011;3579;48.956;9.154;2023-09-08T09:05:25;5.60;;;4.63;;
7076;SDS011;3579;48.956;9.154;2023-09-08T09:07:52;8.07;;;4.57;;
7076;SDS011;3579;48.956;9.154;2023-09-08T09:10:20;4.80;;;4.10;;
7076;SDS011;3579;48.956;9.154;2023-09-08T09:12:46;6.03;;;4.10;;
7076;SDS011;3579;48.956;9.154;2023-09-08T09:15:13;5.30;;;4.00;;
7076;SDS011;3579;48.956;9.154;2023-09-08T09:17:40;5.80;;;4.23;;
7076;SDS011;3579;48.956;9.154;2023-09-08T09:20:16;5.97;;;4.00;;
7076;SDS011;3579;48.956;9.154;2023-09-08T09:22:43;7.53;;;3.90;;
7076;SDS011;3579;48.956;9.154;2023-09-08T09:28:16;5.20;;;3.97;;
7076;SDS011;3579;48.956;9.154;2023-09-08T09:30:52;7.50;;;4.40;;
7076;SDS011;3579;48.956;9.154;2023-09-08T09:33:25;6.93;;;4.20;;
7076;SDS011;3579;48.956;9.154;2023-09-08T09:36:01;5.90;;;4.97;;
7076;SDS011;3579;48.956;9.154;2023-09-08T09:38:28;7.23;;;5.30;;
7076;SDS011;3579;48.956;9.154;2023-09-08T09:40:54;7.20;;;5.60;;
7076;SDS011;3579;48.956;9.154;2023-09-08T09:43:21;6.40;;;5.00;;
7076;SDS011;3579;48.956;9.154;2023-09-08T09:45:48;10.77;;;5.33;;
7076;SDS011;3579;48.956;9.154;2023-09-08T09:48:14;7.40;;;5.30;;
7076;SDS011;3579;48.956;9.154;2023-09-08T09:50:41;9.10;;;5.27;;
7076;SDS011;3579;48.956;9.154;2023-09-08T09:53:12;9.37;;;5.40;;
7076;SDS011;3579;48.956;9.154;2023-09-08T09:55:42;8.87;;;5.20;;
7076;SDS011;3579;48.956;9.154;2023-09-08T09:58:09;12.40;;;6.80;;
7076;SDS011;3579;48.956;9.154;2023-09-08T10:00:36;12.53;;;5.90;;
7076;SDS011;3579;48.956;9.154;2023-09-08T10:03:03;9.93;;;5.63;;
7076;SDS011;3579;48.956;9.154;2023-09-08T10:05:30;9.77;;;6.23;;
7076;SDS011;3579;48.956;9.154;2023-09-08T10:07:56;7.77;;;5.80;;
7076;SDS011;3579;48.956;9.154;2023-09-08T10:10:24;8.80;;;5.13;;
7076;SDS011;3579;48.956;9.154;2023-09-08T10:12:52;7.13;;;5.27;;
7076;SDS011;3579;48.956;9.154;2023-09-08T10:15:23;6.73;;;5.10;;
7076;SDS011;3579;48.956;9.154;2023-09-08T10:17:52;8.60;;;4.57;;
7076;SDS011;3579;48.956;9.154;2023-09-08T10:20:20;8.20;;;5.80;;
7076;SDS011;3579;48.956;9.154;2023-09-08T10:22:56;9.93;;;5.10;;
7076;SDS011;3579;48.956;9.154;2023-09-08T10:25:29;9.63;;;5.00;;
7076;SDS011;3579;48.956;9.154;2023-09-08T10:28:01;8.93;;;5.20;;
7076;SDS011;3579;48.956;9.154;2023-09-08T10:30:29;8.53;;;5.50;;
7076;SDS011;3579;48.956;9.154;2023-09-08T10:32:56;9.33;;;5.03;;
7076;SDS011;3579;48.956;9.154;2023-09-08T10:35:23;6.40;;;5.30;;
7076;SDS011;3579;48.956;9.154;2023-09-08T10:37:50;8.87;;;5.07;;
7076;SDS011;3579;48.956;9.154;2023-09-08T10:40:22;9.23;;;5.00;;
7076;SDS011;3579;48.956;9.154;2023-09-08T10:43:00;5.70;;;4.70;;
7076;SDS011;3579;48.956;9.154;2023-09-08T10:45:31;7.03;;;5.33;;
7076;SDS011;3579;48.956;9.154;2023-09-08T10:47:57;6.63;;;4.80;;
7076;SDS011;3579;48.956;9.154;2023-09-08T10:50:29;6.47;;;4.70;;
7076;SDS011;3579;48.956;9.154;2023-09-08T10:55:40;6.80;;;5.17;;
7076;SDS011;3579;48.956;9.154;2023-09-08T10:58:11;5.87;;;5.27;;
7076;SDS011;3579;48.956;9.154;2023-09-08T11:00:42;8.77;;;5.13;;
7076;SDS011;3579;48.956;9.154;2023-09-08T11:03:10;10.20;;;5.53;;
7076;SDS011;3579;48.956;9.154;2023-09-08T11:05:37;7.67;;;5.33;;
7076;SDS011;3579;48.956;9.154;2023-09-08T11:08:03;7.23;;;5.17;;
7076;SDS011;3579;48.956;9.154;2023-09-08T11:10:29;12.47;;;5.20;;
7076;SDS011;3579;48.956;9.154;2023-09-08T11:12:58;8.87;;;5.20;;
7076;SDS011;3579;48.956;9.154;2023-09-08T11:15:25;7.33;;;4.87;;
7076;SDS011;3579;48.956;9.154;2023-09-08T11:17:51;5.77;;;5.03;;
7076;SDS011;3579;48.956;9.154;2023-09-08T11:20:25;9.20;;;5.00;;
7076;SDS011;3579;48.956;9.154;2023-09-08T11:22:53;6.23;;;4.97;;
7076;SDS011;3579;48.956;9.154;2023-09-08T11:25:19;5.63;;;4.73;;
7076;SDS011;3579;48.956;9.154;2023-09-08T11:27:46;6.00;;;5.20;;
7076;SDS011;3579;48.956;9.154;2023-09-08T11:30:15;7.20;;;5.30;;
7076;SDS011;3579;48.956;9.154;2023-09-08T11:32:41;8.93;;;5.30;;
7076;SDS011;3579;48.956;9.154;2023-09-08T11:35:08;6.33;;;5.00;;
7076;SDS011;3579;48.956;9.154;2023-09-08T11:37:39;7.57;;;5.17;;
7076;SDS011;3579;48.956;9.154;2023-09-08T11:40:07;6.97;;;5.10;;
7076;SDS011;3579;48.956;9.154;2023-09-08T11:42:41;8.40;;;5.30;;
7076;SDS011;3579;48.956;9.154;2023-09-08T11:45:10;8.37;;;5.53;;
7076;SDS011;3579;48.956;9.154;2023-09-08T11:47:41;8.00;;;5.30;;
7076;SDS011;3579;48.956;9.154;2023-09-08T11:50:09;7.77;;;5.70;;
7076;SDS011;3579;48.956;9.154;2023-09-08T11:52:37;9.30;;;5.27;;
7076;SDS011;3579;48.956;9.154;2023-09-08T11:55:04;6.63;;;5.27;;
7076;SDS011;3579;48.956;9.154;2023-09-08T11:57:31;6.77;;;5.53;;
7076;SDS011;3579;48.956;9.154;2023-09-08T11:59:57;8.43;;;5.70;;
7076;SDS011;3579;48.956;9.154;2023-09-08T12:02:25;6.13;;;5.00;;
7076;SDS011;3579;48.956;9.154;2023-09-08T12:05:00;8.37;;;5.53;;
7076;SDS011;3579;48.956;9.154;2023-09-08T12:07:28;8.30;;;5.47;;
7076;SDS011;3579;48.956;9.154;2023-09-08T12:09:58;8.93;;;4.90;;
7076;SDS011;3579;48.956;9.154;2023-09-08T12:15:29;7.87;;;5.13;;
7076;SDS011;3579;48.956;9.154;2023-09-08T12:17:59;8.17;;;5.70;;
7076;SDS011;3579;48.956;9.154;2023-09-08T12:20:36;7.33;;;5.43;;
7076;SDS011;3579;48.956;9.154;2023-09-08T12:23:15;10.17;;;5.00;;
7076;SDS011;3579;48.956;9.154;2023-09-08T12:25:46;6.83;;;5.53;;
7076;SDS011;3579;48.956;9.154;2023-09-08T12:28:19;7.50;;;5.13;;
7076;SDS011;3579;48.956;9.154;2023-09-08T12:30:47;8.77;;;5.70;;
7076;SDS011;3579;48.956;9.154;2023-09-08T12:33:15;7.33;;;5.30;;
7076;SDS011;3579;48.956;9.154;2023-09-08T12:35:44;7.33;;;5.30;;
7076;SDS011;3579;48.956;9.154;2023-09-08T12:38:12;8.47;;;4.63;;
7076;SDS011;3579;48.956;9.154;2023-09-08T12:40:38;8.77;;;5.27;;
7076;SDS011;3579;48.956;9.154;2023-09-08T12:43:05;5.97;;;5.30;;
7076;SDS011;3579;48.956;9.154;2023-09-08T12:45:32;6.23;;;4.83;;
7076;SDS011;3579;48.956;9.154;2023-09-08T12:47:58;7.80;;;5.00;;
7076;SDS011;3579;48.956;9.154;2023-09-08T12:50:27;5.77;;;5.10;;
7076;SDS011;3579;48.956;9.154;2023-09-08T12:52:53;8.80;;;5.50;;
7076;SDS011;3579;48.956;9.154;2023-09-08T12:55:19;6.07;;;4.90;;
7076;SDS011;3579;48.956;9.154;2023-09-08T12:57:46;9.60;;;5.32;;
7076;SDS011;3579;48.956;9.154;2023-09-08T13:00:12;5.30;;;4.80;;
7076;SDS011;3579;48.956;9.154;2023-09-08T13:02:39;7.10;;;5.00;;
7076;SDS011;3579;48.956;9.154;2023-09-08T13:05:06;8.07;;;5.20;;
7076;SDS011;3579;48.956;9.154;2023-09-08T13:07:33;9.33;;;4.93;;
7076;SDS011;3579;48.956;9.154;2023-09-08T13:09:59;7.33;;;4.80;;
7076;SDS011;3579;48.956;9.154;2023-09-08T13:12:25;6.87;;;5.00;;
7076;SDS011;3579;48.956;9.154;2023-09-08T13:14:51;6.73;;;5.07;;
7076;SDS011;3579;48.956;9.154;2023-09-08T13:17:18;7.90;;;4.60;;
7076;SDS011;3579;48.956;9.154;2023-09-08T13:19:44;7.47;;;4.83;;
7076;SDS011;3579;48.956;9.154;2023-09-08T13:22:11;5.47;;;4.87;;
7076;SDS011;3579;48.956;9.154;2023-09-08T13:24:37;8.57;;;4.73;;
7076;SDS011;3579;48.956;9.154;2023-09-08T13:27:03;6.07;;;5.07;;
7076;SDS011;3579;48.956;9.154;2023-09-08T13:29:29;4.80;;;4.40;;
7076;SDS011;3579;48.956;9.154;2023-09-08T13:31:55;7.57;;;4.77;;
7076;SDS011;3579;48.956;9.154;2023-09-08T13:34:22;8.47;;;4.60;;
7076;SDS011;3579;48.956;9.154;2023-09-08T13:36:49;7.90;;;4.97;;
7076;SDS011;3579;48.956;9.154;2023-09-08T13:39:15;9.60;;;5.30;;
7076;SDS011;3579;48.956;9.154;2023-09-08T13:41:51;7.97;;;4.80;;
7076;SDS011;3579;48.956;9.154;2023-09-08T13:52:05;9.23;;;4.80;;
7076;SDS011;3579;48.956;9.154;2023-09-08T13:54:32;7.47;;;4.50;;
7076;SDS011;3579;48.956;9.154;2023-09-08T13:57:00;7.87;;;4.87;;
7076;SDS011;3579;48.956;9.154;2023-09-08T13:59:28;7.27;;;4.87;;
7076;SDS011;3579;48.956;9.154;2023-09-08T14:01:55;6.23;;;5.07;;
7076;SDS011;3579;48.956;9.154;2023-09-08T14:04:23;11.63;;;4.97;;
7076;SDS011;3579;48.956;9.154;2023-09-08T14:06:50;9.10;;;4.50;;
7076;SDS011;3579;48.956;9.154;2023-09-08T14:09:16;8.10;;;4.47;;
7076;SDS011;3579;48.956;9.154;2023-09-08T14:11:42;7.87;;;4.67;;
7076;SDS011;3579;48.956;9.154;2023-09-08T14:14:08;7.53;;;4.77;;
7076;SDS011;3579;48.956;9.154;2023-09-08T14:16:35;6.73;;;4.47;;
7076;SDS011;3579;48.956;9.154;2023-09-08T14:19:01;8.70;;;4.57;;
7076;SDS011;3579;48.956;9.154;2023-09-08T14:21:27;9.77;;;5.23;;
7076;SDS011;3579;48.956;9.154;2023-09-08T14:23:53;6.43;;;4.23;;
7076;SDS011;3579;48.956;9.154;2023-09-08T14:26:19;7.27;;;4.57;;
7076;SDS011;3579;48.956;9.154;2023-09-08T14:28:46;7.80;;;4.27;;
7076;SDS011;3579;48.956;9.154;2023-09-08T14:31:16;7.57;;;4.50;;
7076;SDS011;3579;48.956;9.154;2023-09-08T14:33:42;5.90;;;4.70;;
7076;SDS011;3579;48.956;9.154;2023-09-08T14:36:08;4.90;;;4.40;;
7076;SDS011;3579;48.956;9.154;2023-09-08T14:38:34;4.87;;;4.33;;
7076;SDS011;3579;48.956;9.154;2023-09-08T14:41:01;7.17;;;4.53;;
7076;SDS011;3579;48.956;9.154;2023-09-08T14:43:28;6.63;;;4.37;;
7076;SDS011;3579;48.956;9.154;2023-09-08T14:45:55;6.47;;;4.20;;
7076;SDS011;3579;48.956;9.154;2023-09-08T14:48:24;4.70;;;4.30;;
7076;SDS011;3579;48.956;9.154;2023-09-08T14:50:50;7.77;;;4.27;;
7076;SDS011;3579;48.956;9.154;2023-09-08T14:53:17;5.50;;;4.50;;
7076;SDS011;3579;48.956;9.154;2023-09-08T14:55:43;6.03;;;4.30;;
7076;SDS011;3579;48.956;9.154;2023-09-08T14:58:10;5.33;;;4.07;;
7076;SDS011;3579;48.956;9.154;2023-09-08T15:00:39;7.30;;;4.90;;
7076;SDS011;3579;48.956;9.154;2023-09-08T15:03:06;4.80;;;4.00;;
7076;SDS011;3579;48.956;9.154;2023-09-08T15:05:33;5.30;;;3.87;;
7076;SDS011;3579;48.956;9.154;2023-09-08T15:07:59;4.77;;;4.10;;
7076;SDS011;3579;48.956;9.154;2023-09-08T15:10:26;4.70;;;4.27;;
7076;SDS011;3579;48.956;9.154;2023-09-08T15:12:52;6.97;;;4.83;;
7076;SDS011;3579;48.956;9.154;2023-09-08T15:15:19;7.20;;;4.40;;
7076;SDS011;3579;48.956;9.154;2023-09-08T15:17:52;4.77;;;3.97;;
7076;SDS011;3579;48.956;9.154;2023-09-08T15:20:19;4.23;;;3.77;;
7076;SDS011;3579;48.956;9.154;2023-09-08T15:22:45;5.93;;;4.03;;
7076;SDS011;3579;48.956;9.154;2023-09-08T15:25:12;5.53;;;4.07;;
7076;SDS011;3579;48.956;9.154;2023-09-08T15:27:38;5.57;;;4.43;;
7076;SDS011;3579;48.956;9.154;2023-09-08T15:30:05;5.10;;;4.03;;
7076;SDS011;3579;48.956;9.154;2023-09-08T15:32:31;5.37;;;3.73;;
7076;SDS011;3579;48.956;9.154;2023-09-08T15:34:57;4.50;;;4.00;;